sensor_id;sensor_type;location;lat;lon;timestamp;P1;durP1;ratioP1;P2;durP2;ratioP2
44181;SDS011;30436;48.888;9.202;2022-09-12T00:01:33;7.13;;;6.40;;
44181;SDS011;30436;48.888;9.202;2022-09-12T00:03:59;7.53;;;6.30;;
44181;SDS011;30436;48.888;9.202;2022-09-12T00:06:30;7.20;;;6.37;;
44181;SDS011;30436;48.888;9.202;2022-09-12T00:08:59;8.00;;;6.17;;
44181;SDS011;30436;48.888;9.202;2022-09-12T00:11:26;7.07;;;5.77;;
44181;SDS011;30436;48.888;9.202;2022-09-12T00:13:56;7.00;;;6.30;;
44181;SDS011;30436;48.888;9.202;2022-09-12T00:16:24;8.07;;;6.60;;
44181;SDS011;30436;48.888;9.202;2022-09-12T00:18:51;7.53;;;6.07;;
44181;SDS011;30436;48.888;9.202;2022-09-12T00:21:18;8.43;;;6.13;;
44181;SDS011;30436;48.888;9.202;2022-09-12T00:23:44;7.77;;;6.10;;
44181;SDS011;30436;48.888;9.202;2022-09-12T00:26:11;8.13;;;6.20;;
44181;SDS011;30436;48.888;9.202;2022-09-12T00:28:37;6.77;;;6.10;;
44181;SDS011;30436;48.888;9.202;2022-09-12T00:31:05;7.83;;;7.03;;
44181;SDS011;30436;48.888;9.202;2022-09-12T00:33:33;8.07;;;6.33;;
44181;SDS011;30436;48.888;9.202;2022-09-12T00:36:02;6.90;;;6.07;;
44181;SDS011;30436;48.888;9.202;2022-09-12T00:38:29;9.07;;;6.43;;
44181;SDS011;30436;48.888;9.202;2022-09-12T00:40:55;6.80;;;6.10;;
44181;SDS011;30436;48.888;9.202;2022-09-12T00:48:41;7.37;;;6.43;;
44181;SDS011;30436;48.888;9.202;2022-09-12T00:51:11;7.37;;;5.90;;
44181;SDS011;30436;48.888;9.202;2022-09-12T00:53:38;8.87;;;6.47;;
44181;SDS011;30436;48.888;9.202;2022-09-12T00:56:07;8.03;;;6.60;;
44181;SDS011;30436;48.888;9.202;2022-09-12T00:58:39;7.40;;;6.67;;
44181;SDS011;30436;48.888;9.202;2022-09-12T01:01:11;8.07;;;6.40;;
44181;SDS011;30436;48.888;9.202;2022-09-12T01:03:37;6.93;;;6.23;;
44181;SDS011;30436;48.888;9.202;2022-09-12T01:08:33;7.43;;;6.23;;
44181;SDS011;30436;48.888;9.202;2022-09-12T01:11:01;7.07;;;6.40;;
44181;SDS011;30436;48.888;9.202;2022-09-12T01:13:28;8.33;;;6.70;;
44181;SDS011;30436;48.888;9.202;2022-09-12T01:15:54;7.43;;;6.73;;
44181;SDS011;30436;48.888;9.202;2022-09-12T01:19:04;8.83;;;6.57;;
44181;SDS011;30436;48.888;9.202;2022-09-12T01:40:30;7.97;;;7.07;;
44181;SDS011;30436;48.888;9.202;2022-09-12T01:45:52;10.17;;;7.00;;
44181;SDS011;30436;48.888;9.202;2022-09-12T01:48:38;8.10;;;7.30;;
44181;SDS011;30436;48.888;9.202;2022-09-12T01:51:12;8.03;;;7.03;;
44181;SDS011;30436;48.888;9.202;2022-09-12T01:53:45;8.13;;;7.27;;
44181;SDS011;30436;48.888;9.202;2022-09-12T01:56:16;9.00;;;7.30;;
44181;SDS011;30436;48.888;9.202;2022-09-12T01:58:49;10.07;;;7.03;;
44181;SDS011;30436;48.888;9.202;2022-09-12T02:01:28;8.40;;;7.53;;
44181;SDS011;30436;48.888;9.202;2022-09-12T02:06:31;7.73;;;7.03;;
44181;SDS011;30436;48.888;9.202;2022-09-12T02:09:04;8.43;;;7.53;;
44181;SDS011;30436;48.888;9.202;2022-09-12T02:11:39;10.47;;;7.87;;
44181;SDS011;30436;48.888;9.202;2022-09-12T02:14:11;8.43;;;7.27;;
44181;SDS011;30436;48.888;9.202;2022-09-12T02:16:49;8.73;;;7.80;;
44181;SDS011;30436;48.888;9.202;2022-09-12T02:19:20;7.83;;;7.10;;
44181;SDS011;30436;48.888;9.202;2022-09-12T02:21:50;7.33;;;6.60;;
44181;SDS011;30436;48.888;9.202;2022-09-12T02:24:21;8.53;;;7.67;;
44181;SDS011;30436;48.888;9.202;2022-09-12T02:27:02;7.60;;;6.90;;
44181;SDS011;30436;48.888;9.202;2022-09-12T02:29:32;8.50;;;7.70;;
44181;SDS011;30436;48.888;9.202;2022-09-12T02:32:03;9.00;;;8.07;;
44181;SDS011;30436;48.888;9.202;2022-09-12T02:37:13;7.60;;;6.87;;
44181;SDS011;30436;48.888;9.202;2022-09-12T02:40:05;9.80;;;6.83;;
44181;SDS011;30436;48.888;9.202;2022-09-12T02:42:32;7.87;;;6.87;;
44181;SDS011;30436;48.888;9.202;2022-09-12T02:44:59;7.60;;;6.83;;
44181;SDS011;30436;48.888;9.202;2022-09-12T02:47:30;6.83;;;6.23;;
44181;SDS011;30436;48.888;9.202;2022-09-12T02:50:00;6.57;;;6.00;;
44181;SDS011;30436;48.888;9.202;2022-09-12T02:52:29;7.57;;;5.67;;
44181;SDS011;30436;48.888;9.202;2022-09-12T02:54:56;7.13;;;6.37;;
44181;SDS011;30436;48.888;9.202;2022-09-12T02:57:22;6.67;;;6.07;;
44181;SDS011;30436;48.888;9.202;2022-09-12T02:59:47;6.60;;;6.00;;
44181;SDS011;30436;48.888;9.202;2022-09-12T03:05:23;6.63;;;5.63;;
44181;SDS011;30436;48.888;9.202;2022-09-12T03:08:05;6.97;;;6.13;;
44181;SDS011;30436;48.888;9.202;2022-09-12T03:11:07;9.13;;;5.73;;
44181;SDS011;30436;48.888;9.202;2022-09-12T03:16:32;7.17;;;5.93;;
44181;SDS011;30436;48.888;9.202;2022-09-12T03:19:23;7.17;;;6.37;;
44181;SDS011;30436;48.888;9.202;2022-09-12T03:21:57;8.97;;;6.40;;
44181;SDS011;30436;48.888;9.202;2022-09-12T03:24:38;7.03;;;6.33;;
44181;SDS011;30436;48.888;9.202;2022-09-12T03:27:24;7.27;;;6.57;;
44181;SDS011;30436;48.888;9.202;2022-09-12T03:29:54;7.57;;;6.53;;
44181;SDS011;30436;48.888;9.202;2022-09-12T03:32:38;7.33;;;6.20;;
44181;SDS011;30436;48.888;9.202;2022-09-12T03:35:05;7.17;;;6.37;;
44181;SDS011;30436;48.888;9.202;2022-09-12T03:37:31;7.07;;;6.40;;
44181;SDS011;30436;48.888;9.202;2022-09-12T03:39:57;6.90;;;6.33;;
44181;SDS011;30436;48.888;9.202;2022-09-12T03:42:22;7.80;;;6.80;;
44181;SDS011;30436;48.888;9.202;2022-09-12T03:44:48;8.87;;;7.67;;
44181;SDS011;30436;48.888;9.202;2022-09-12T03:47:14;8.40;;;7.20;;
44181;SDS011;30436;48.888;9.202;2022-09-12T03:49:39;8.20;;;7.37;;
44181;SDS011;30436;48.888;9.202;2022-09-12T03:52:05;8.63;;;7.23;;
44181;SDS011;30436;48.888;9.202;2022-09-12T03:54:31;9.23;;;7.50;;
44181;SDS011;30436;48.888;9.202;2022-09-12T03:56:56;8.03;;;7.27;;
44181;SDS011;30436;48.888;9.202;2022-09-12T03:59:22;8.20;;;6.93;;
44181;SDS011;30436;48.888;9.202;2022-09-12T04:01:48;10.17;;;8.03;;
44181;SDS011;30436;48.888;9.202;2022-09-12T04:04:13;8.83;;;7.53;;
44181;SDS011;30436;48.888;9.202;2022-09-12T04:06:39;9.97;;;7.33;;
44181;SDS011;30436;48.888;9.202;2022-09-12T04:09:06;9.03;;;7.17;;
44181;SDS011;30436;48.888;9.202;2022-09-12T04:11:31;8.97;;;8.17;;
44181;SDS011;30436;48.888;9.202;2022-09-12T04:13:57;9.37;;;8.20;;
44181;SDS011;30436;48.888;9.202;2022-09-12T04:16:23;8.20;;;7.40;;
44181;SDS011;30436;48.888;9.202;2022-09-12T04:18:48;9.37;;;7.73;;
44181;SDS011;30436;48.888;9.202;2022-09-12T04:21:16;8.77;;;7.93;;
44181;SDS011;30436;48.888;9.202;2022-09-12T04:23:43;10.43;;;8.40;;
44181;SDS011;30436;48.888;9.202;2022-09-12T04:26:09;10.33;;;8.20;;
44181;SDS011;30436;48.888;9.202;2022-09-12T04:28:37;8.83;;;7.93;;
44181;SDS011;30436;48.888;9.202;2022-09-12T04:31:04;9.40;;;8.60;;
44181;SDS011;30436;48.888;9.202;2022-09-12T04:33:37;10.33;;;8.13;;
44181;SDS011;30436;48.888;9.202;2022-09-12T04:36:06;10.57;;;8.83;;
44181;SDS011;30436;48.888;9.202;2022-09-12T04:38:34;11.80;;;8.73;;
44181;SDS011;30436;48.888;9.202;2022-09-12T04:41:11;9.97;;;8.63;;
44181;SDS011;30436;48.888;9.202;2022-09-12T04:43:38;9.57;;;8.10;;
44181;SDS011;30436;48.888;9.202;2022-09-12T04:46:07;9.67;;;8.43;;
44181;SDS011;30436;48.888;9.202;2022-09-12T04:48:35;10.00;;;8.17;;
44181;SDS011;30436;48.888;9.202;2022-09-12T04:51:08;9.43;;;8.33;;
44181;SDS011;30436;48.888;9.202;2022-09-12T04:53:49;10.07;;;8.70;;
44181;SDS011;30436;48.888;9.202;2022-09-12T04:56:16;9.47;;;8.57;;
44181;SDS011;30436;48.888;9.202;2022-09-12T04:58:42;10.63;;;8.50;;
44181;SDS011;30436;48.888;9.202;2022-09-12T05:01:18;9.50;;;8.60;;
44181;SDS011;30436;48.888;9.202;2022-09-12T05:03:45;11.43;;;9.50;;
44181;SDS011;30436;48.888;9.202;2022-09-12T05:06:13;11.53;;;8.80;;
44181;SDS011;30436;48.888;9.202;2022-09-12T05:08:41;9.43;;;8.40;;
44181;SDS011;30436;48.888;9.202;2022-09-12T05:11:11;9.60;;;8.47;;
44181;SDS011;30436;48.888;9.202;2022-09-12T05:13:38;9.27;;;8.37;;
44181;SDS011;30436;48.888;9.202;2022-09-12T05:16:05;9.10;;;8.13;;
44181;SDS011;30436;48.888;9.202;2022-09-12T05:18:32;11.93;;;8.50;;
44181;SDS011;30436;48.888;9.202;2022-09-12T05:20:59;11.97;;;7.73;;
44181;SDS011;30436;48.888;9.202;2022-09-12T05:23:27;11.10;;;8.73;;
44181;SDS011;30436;48.888;9.202;2022-09-12T05:25:53;10.63;;;8.57;;
44181;SDS011;30436;48.888;9.202;2022-09-12T05:28:21;11.33;;;9.90;;
44181;SDS011;30436;48.888;9.202;2022-09-12T05:30:58;10.27;;;9.20;;
44181;SDS011;30436;48.888;9.202;2022-09-12T05:33:29;13.70;;;8.97;;
44181;SDS011;30436;48.888;9.202;2022-09-12T05:35:56;10.03;;;8.97;;
44181;SDS011;30436;48.888;9.202;2022-09-12T05:38:22;10.43;;;9.10;;
44181;SDS011;30436;48.888;9.202;2022-09-12T05:40:52;9.80;;;8.77;;
44181;SDS011;30436;48.888;9.202;2022-09-12T05:43:18;10.97;;;9.50;;
44181;SDS011;30436;48.888;9.202;2022-09-12T05:45:44;11.33;;;9.80;;
44181;SDS011;30436;48.888;9.202;2022-09-12T05:48:10;10.40;;;9.30;;
44181;SDS011;30436;48.888;9.202;2022-09-12T05:50:36;12.03;;;9.57;;
44181;SDS011;30436;48.888;9.202;2022-09-12T05:53:01;10.97;;;9.63;;
44181;SDS011;30436;48.888;9.202;2022-09-12T05:55:27;12.13;;;8.97;;
44181;SDS011;30436;48.888;9.202;2022-09-12T05:57:53;11.97;;;9.53;;
44181;SDS011;30436;48.888;9.202;2022-09-12T06:00:19;11.73;;;9.63;;
44181;SDS011;30436;48.888;9.202;2022-09-12T06:02:50;13.37;;;9.40;;
44181;SDS011;30436;48.888;9.202;2022-09-12T06:05:17;13.67;;;9.30;;
44181;SDS011;30436;48.888;9.202;2022-09-12T06:07:44;10.43;;;8.33;;
44181;SDS011;30436;48.888;9.202;2022-09-12T06:10:11;10.30;;;9.17;;
44181;SDS011;30436;48.888;9.202;2022-09-12T06:12:37;9.90;;;8.30;;
44181;SDS011;30436;48.888;9.202;2022-09-12T06:15:03;11.17;;;8.77;;
44181;SDS011;30436;48.888;9.202;2022-09-12T06:17:29;10.37;;;8.83;;
44181;SDS011;30436;48.888;9.202;2022-09-12T06:19:55;10.03;;;8.73;;
44181;SDS011;30436;48.888;9.202;2022-09-12T06:22:21;10.43;;;8.87;;
44181;SDS011;30436;48.888;9.202;2022-09-12T06:24:46;10.00;;;8.77;;
44181;SDS011;30436;48.888;9.202;2022-09-12T06:27:12;9.43;;;8.47;;
44181;SDS011;30436;48.888;9.202;2022-09-12T06:29:37;10.53;;;8.97;;
44181;SDS011;30436;48.888;9.202;2022-09-12T06:32:03;10.03;;;8.63;;
44181;SDS011;30436;48.888;9.202;2022-09-12T06:34:29;9.27;;;8.37;;
44181;SDS011;30436;48.888;9.202;2022-09-12T06:36:55;9.50;;;8.00;;
44181;SDS011;30436;48.888;9.202;2022-09-12T06:39:21;9.67;;;8.53;;
44181;SDS011;30436;48.888;9.202;2022-09-12T06:41:50;9.30;;;8.23;;
44181;SDS011;30436;48.888;9.202;2022-09-12T06:44:17;9.70;;;8.80;;
44181;SDS011;30436;48.888;9.202;2022-09-12T06:46:44;9.60;;;8.30;;
44181;SDS011;30436;48.888;9.202;2022-09-12T06:49:10;9.57;;;8.50;;
44181;SDS011;30436;48.888;9.202;2022-09-12T06:51:36;9.00;;;8.10;;
44181;SDS011;30436;48.888;9.202;2022-09-12T06:54:02;9.50;;;8.13;;
44181;SDS011;30436;48.888;9.202;2022-09-12T06:56:29;9.83;;;8.13;;
44181;SDS011;30436;48.888;9.202;2022-09-12T06:58:56;8.57;;;7.67;;
44181;SDS011;30436;48.888;9.202;2022-09-12T07:01:29;8.67;;;7.87;;
44181;SDS011;30436;48.888;9.202;2022-09-12T07:03:59;9.50;;;8.20;;
44181;SDS011;30436;48.888;9.202;2022-09-12T07:06:28;9.33;;;8.43;;
44181;SDS011;30436;48.888;9.202;2022-09-12T07:08:58;12.40;;;8.23;;
44181;SDS011;30436;48.888;9.202;2022-09-12T07:11:25;9.47;;;8.50;;
44181;SDS011;30436;48.888;9.202;2022-09-12T07:13:54;9.40;;;8.50;;
44181;SDS011;30436;48.888;9.202;2022-09-12T07:16:21;9.73;;;8.23;;
44181;SDS011;30436;48.888;9.202;2022-09-12T07:18:50;9.60;;;8.70;;
44181;SDS011;30436;48.888;9.202;2022-09-12T07:21:17;9.90;;;8.60;;
44181;SDS011;30436;48.888;9.202;2022-09-12T07:23:43;9.10;;;7.87;;
44181;SDS011;30436;48.888;9.202;2022-09-12T07:26:10;11.27;;;8.47;;
44181;SDS011;30436;48.888;9.202;2022-09-12T07:28:37;8.93;;;8.03;;
44181;SDS011;30436;48.888;9.202;2022-09-12T07:33:32;12.93;;;8.80;;
44181;SDS011;30436;48.888;9.202;2022-09-12T07:36:02;10.57;;;7.97;;
44181;SDS011;30436;48.888;9.202;2022-09-12T07:38:30;8.57;;;7.30;;
44181;SDS011;30436;48.888;9.202;2022-09-12T07:40:55;7.90;;;7.20;;
44181;SDS011;30436;48.888;9.202;2022-09-12T07:43:21;9.27;;;7.50;;
44181;SDS011;30436;48.888;9.202;2022-09-12T07:45:47;8.83;;;7.93;;
44181;SDS011;30436;48.888;9.202;2022-09-12T07:48:13;9.70;;;7.40;;
44181;SDS011;30436;48.888;9.202;2022-09-12T07:50:38;9.00;;;6.83;;
44181;SDS011;30436;48.888;9.202;2022-09-12T07:53:04;9.90;;;7.10;;
44181;SDS011;30436;48.888;9.202;2022-09-12T07:55:30;7.23;;;6.53;;
44181;SDS011;30436;48.888;9.202;2022-09-12T07:57:56;6.73;;;6.13;;
44181;SDS011;30436;48.888;9.202;2022-09-12T08:00:23;7.83;;;7.13;;
44181;SDS011;30436;48.888;9.202;2022-09-12T08:02:50;7.97;;;7.07;;
44181;SDS011;30436;48.888;9.202;2022-09-12T08:05:17;8.23;;;7.27;;
44181;SDS011;30436;48.888;9.202;2022-09-12T08:07:44;8.03;;;7.23;;
44181;SDS011;30436;48.888;9.202;2022-09-12T08:10:10;8.83;;;7.60;;
44181;SDS011;30436;48.888;9.202;2022-09-12T08:12:36;6.90;;;6.10;;
44181;SDS011;30436;48.888;9.202;2022-09-12T08:15:02;9.13;;;7.10;;
44181;SDS011;30436;48.888;9.202;2022-09-12T08:17:28;8.00;;;7.20;;
44181;SDS011;30436;48.888;9.202;2022-09-12T08:19:54;7.73;;;6.93;;
44181;SDS011;30436;48.888;9.202;2022-09-12T08:22:20;7.37;;;6.47;;
44181;SDS011;30436;48.888;9.202;2022-09-12T08:24:47;7.43;;;6.43;;
44181;SDS011;30436;48.888;9.202;2022-09-12T08:27:13;7.47;;;6.67;;
44181;SDS011;30436;48.888;9.202;2022-09-12T08:29:39;7.37;;;6.50;;
44181;SDS011;30436;48.888;9.202;2022-09-12T08:32:05;9.20;;;6.70;;
44181;SDS011;30436;48.888;9.202;2022-09-12T08:34:31;7.80;;;6.90;;
44181;SDS011;30436;48.888;9.202;2022-09-12T08:36:57;6.83;;;5.60;;
44181;SDS011;30436;48.888;9.202;2022-09-12T08:39:23;7.23;;;5.37;;
44181;SDS011;30436;48.888;9.202;2022-09-12T08:41:55;5.43;;;4.93;;
44181;SDS011;30436;48.888;9.202;2022-09-12T08:47:19;6.50;;;5.33;;
44181;SDS011;30436;48.888;9.202;2022-09-12T08:55:41;5.07;;;4.50;;
44181;SDS011;30436;48.888;9.202;2022-09-12T08:58:11;4.60;;;4.30;;
44181;SDS011;30436;48.888;9.202;2022-09-12T09:00:49;6.20;;;4.57;;
44181;SDS011;30436;48.888;9.202;2022-09-12T09:11:49;6.77;;;4.73;;
44181;SDS011;30436;48.888;9.202;2022-09-12T09:20:03;8.53;;;4.50;;
44181;SDS011;30436;48.888;9.202;2022-09-12T09:22:42;4.50;;;4.10;;
44181;SDS011;30436;48.888;9.202;2022-09-12T09:25:45;5.37;;;4.87;;
44181;SDS011;30436;48.888;9.202;2022-09-12T09:28:41;5.50;;;4.80;;
44181;SDS011;30436;48.888;9.202;2022-09-12T09:31:24;4.27;;;3.90;;
44181;SDS011;30436;48.888;9.202;2022-09-12T09:33:53;4.90;;;3.90;;
44181;SDS011;30436;48.888;9.202;2022-09-12T09:41:57;3.90;;;3.60;;
44181;SDS011;30436;48.888;9.202;2022-09-12T09:44:35;5.10;;;4.00;;
44181;SDS011;30436;48.888;9.202;2022-09-12T09:47:01;3.83;;;3.53;;
44181;SDS011;30436;48.888;9.202;2022-09-12T09:49:28;4.63;;;3.63;;
44181;SDS011;30436;48.888;9.202;2022-09-12T09:51:56;6.77;;;3.20;;
44181;SDS011;30436;48.888;9.202;2022-09-12T09:54:30;3.90;;;3.13;;
44181;SDS011;30436;48.888;9.202;2022-09-12T09:57:01;4.53;;;3.50;;
44181;SDS011;30436;48.888;9.202;2022-09-12T09:59:32;3.40;;;3.07;;
44181;SDS011;30436;48.888;9.202;2022-09-12T10:04:41;3.80;;;3.50;;
44181;SDS011;30436;48.888;9.202;2022-09-12T10:07:21;2.83;;;2.63;;
44181;SDS011;30436;48.888;9.202;2022-09-12T10:12:40;6.50;;;2.47;;
44181;SDS011;30436;48.888;9.202;2022-09-12T10:15:16;2.20;;;2.00;;
44181;SDS011;30436;48.888;9.202;2022-09-12T10:17:43;3.20;;;2.90;;
44181;SDS011;30436;48.888;9.202;2022-09-12T10:26:02;3.17;;;2.87;;
44181;SDS011;30436;48.888;9.202;2022-09-12T10:28:43;3.67;;;2.53;;
44181;SDS011;30436;48.888;9.202;2022-09-12T10:31:12;4.03;;;2.63;;
44181;SDS011;30436;48.888;9.202;2022-09-12T10:33:48;4.80;;;2.80;;
44181;SDS011;30436;48.888;9.202;2022-09-12T10:36:20;2.67;;;2.47;;
44181;SDS011;30436;48.888;9.202;2022-09-12T10:38:51;2.50;;;2.30;;
44181;SDS011;30436;48.888;9.202;2022-09-12T10:41:20;2.40;;;2.20;;
44181;SDS011;30436;48.888;9.202;2022-09-12T10:43:46;2.60;;;2.40;;
44181;SDS011;30436;48.888;9.202;2022-09-12T10:46:19;3.07;;;2.87;;
44181;SDS011;30436;48.888;9.202;2022-09-12T10:51:43;2.57;;;2.30;;
44181;SDS011;30436;48.888;9.202;2022-09-12T10:54:09;3.27;;;2.77;;
44181;SDS011;30436;48.888;9.202;2022-09-12T10:56:50;2.43;;;2.20;;
44181;SDS011;30436;48.888;9.202;2022-09-12T11:04:59;2.10;;;2.00;;
44181;SDS011;30436;48.888;9.202;2022-09-12T11:20:47;2.88;;;1.90;;
44181;SDS011;30436;48.888;9.202;2022-09-12T11:25:50;1.98;;;1.80;;
44181;SDS011;30436;48.888;9.202;2022-09-12T11:33:54;2.40;;;1.90;;
44181;SDS011;30436;48.888;9.202;2022-09-12T11:36:27;2.17;;;1.98;;
44181;SDS011;30436;48.888;9.202;2022-09-12T11:39:13;1.70;;;1.60;;
44181;SDS011;30436;48.888;9.202;2022-09-12T11:41:42;2.67;;;1.98;;
44181;SDS011;30436;48.888;9.202;2022-09-12T11:46:46;1.88;;;1.77;;
44181;SDS011;30436;48.888;9.202;2022-09-12T11:49:15;4.13;;;2.17;;
44181;SDS011;30436;48.888;9.202;2022-09-12T11:54:28;2.45;;;1.90;;
44181;SDS011;30436;48.888;9.202;2022-09-12T11:57:07;2.58;;;1.80;;
44181;SDS011;30436;48.888;9.202;2022-09-12T11:59:43;1.92;;;1.80;;
44181;SDS011;30436;48.888;9.202;2022-09-12T12:02:46;1.73;;;1.63;;
44181;SDS011;30436;48.888;9.202;2022-09-12T12:05:33;1.90;;;1.60;;
44181;SDS011;30436;48.888;9.202;2022-09-12T12:08:16;1.80;;;1.70;;
44181;SDS011;30436;48.888;9.202;2022-09-12T12:10:44;1.35;;;1.27;;
44181;SDS011;30436;48.888;9.202;2022-09-12T12:13:24;1.60;;;1.50;;
44181;SDS011;30436;48.888;9.202;2022-09-12T12:15:55;1.30;;;1.30;;
44181;SDS011;30436;48.888;9.202;2022-09-12T12:18:28;1.50;;;1.40;;
44181;SDS011;30436;48.888;9.202;2022-09-12T12:20:55;1.45;;;1.35;;
44181;SDS011;30436;48.888;9.202;2022-09-12T12:36:54;1.58;;;1.48;;
44181;SDS011;30436;48.888;9.202;2022-09-12T12:41:59;2.00;;;1.50;;
44181;SDS011;30436;48.888;9.202;2022-09-12T12:49:50;1.40;;;1.30;;
44181;SDS011;30436;48.888;9.202;2022-09-12T12:52:19;1.90;;;1.60;;
44181;SDS011;30436;48.888;9.202;2022-09-12T12:59:43;1.48;;;1.38;;
44181;SDS011;30436;48.888;9.202;2022-09-12T13:02:23;1.58;;;1.33;;
44181;SDS011;30436;48.888;9.202;2022-09-12T13:04:52;1.50;;;1.40;;
44181;SDS011;30436;48.888;9.202;2022-09-12T13:07:26;1.55;;;1.20;;
44181;SDS011;30436;48.888;9.202;2022-09-12T13:09:56;2.38;;;1.40;;
44181;SDS011;30436;48.888;9.202;2022-09-12T13:12:25;1.33;;;1.23;;
44181;SDS011;30436;48.888;9.202;2022-09-12T13:18:02;1.33;;;1.23;;
44181;SDS011;30436;48.888;9.202;2022-09-12T13:20:31;1.75;;;1.55;;
44181;SDS011;30436;48.888;9.202;2022-09-12T13:23:01;1.40;;;1.30;;
44181;SDS011;30436;48.888;9.202;2022-09-12T13:25:34;1.27;;;1.13;;
44181;SDS011;30436;48.888;9.202;2022-09-12T13:28:02;1.45;;;1.10;;
44181;SDS011;30436;48.888;9.202;2022-09-12T13:30:35;1.27;;;1.05;;
44181;SDS011;30436;48.888;9.202;2022-09-12T13:33:16;1.50;;;1.40;;
44181;SDS011;30436;48.888;9.202;2022-09-12T13:44:18;1.35;;;1.25;;
44181;SDS011;30436;48.888;9.202;2022-09-12T13:46:45;1.23;;;0.93;;
44181;SDS011;30436;48.888;9.202;2022-09-12T13:49:30;2.08;;;1.40;;
44181;SDS011;30436;48.888;9.202;2022-09-12T13:54:30;1.42;;;1.10;;
44181;SDS011;30436;48.888;9.202;2022-09-12T13:56:58;2.60;;;1.42;;
44181;SDS011;30436;48.888;9.202;2022-09-12T13:59:23;1.63;;;1.50;;
44181;SDS011;30436;48.888;9.202;2022-09-12T14:01:49;1.30;;;1.20;;
44181;SDS011;30436;48.888;9.202;2022-09-12T14:07:19;1.02;;;1.00;;
44181;SDS011;30436;48.888;9.202;2022-09-12T14:09:54;1.00;;;1.00;;
44181;SDS011;30436;48.888;9.202;2022-09-12T14:14:59;1.40;;;1.00;;
44181;SDS011;30436;48.888;9.202;2022-09-12T14:17:32;1.27;;;1.17;;
44181;SDS011;30436;48.888;9.202;2022-09-12T14:20:13;3.20;;;1.10;;
44181;SDS011;30436;48.888;9.202;2022-09-12T14:22:40;1.10;;;1.00;;
44181;SDS011;30436;48.888;9.202;2022-09-12T14:25:09;1.17;;;1.08;;
44181;SDS011;30436;48.888;9.202;2022-09-12T14:27:42;1.85;;;1.48;;
44181;SDS011;30436;48.888;9.202;2022-09-12T14:30:19;1.02;;;0.95;;
44181;SDS011;30436;48.888;9.202;2022-09-12T14:35:47;0.88;;;0.88;;
44181;SDS011;30436;48.888;9.202;2022-09-12T14:40:45;1.00;;;1.00;;
44181;SDS011;30436;48.888;9.202;2022-09-12T14:43:17;0.80;;;0.80;;
44181;SDS011;30436;48.888;9.202;2022-09-12T14:48:42;1.08;;;1.08;;
44181;SDS011;30436;48.888;9.202;2022-09-12T14:51:20;1.40;;;1.30;;
44181;SDS011;30436;48.888;9.202;2022-09-12T14:53:49;1.13;;;1.02;;
44181;SDS011;30436;48.888;9.202;2022-09-12T14:56:15;1.48;;;1.00;;
44181;SDS011;30436;48.888;9.202;2022-09-12T14:58:41;0.93;;;0.93;;
44181;SDS011;30436;48.888;9.202;2022-09-12T15:03:51;0.80;;;0.80;;
44181;SDS011;30436;48.888;9.202;2022-09-12T15:06:20;1.13;;;1.05;;
44181;SDS011;30436;48.888;9.202;2022-09-12T15:09:02;1.00;;;1.00;;
44181;SDS011;30436;48.888;9.202;2022-09-12T15:11:30;1.00;;;1.00;;
44181;SDS011;30436;48.888;9.202;2022-09-12T15:13:57;0.90;;;0.90;;
44181;SDS011;30436;48.888;9.202;2022-09-12T15:16:23;1.00;;;1.00;;
44181;SDS011;30436;48.888;9.202;2022-09-12T15:18:48;0.95;;;0.95;;
44181;SDS011;30436;48.888;9.202;2022-09-12T15:21:15;1.55;;;1.00;;
44181;SDS011;30436;48.888;9.202;2022-09-12T15:23:44;0.80;;;0.80;;
44181;SDS011;30436;48.888;9.202;2022-09-12T15:26:13;2.08;;;1.10;;
44181;SDS011;30436;48.888;9.202;2022-09-12T15:28:43;0.90;;;0.90;;
44181;SDS011;30436;48.888;9.202;2022-09-12T15:33:52;2.15;;;1.00;;
44181;SDS011;30436;48.888;9.202;2022-09-12T15:36:19;1.05;;;1.00;;
44181;SDS011;30436;48.888;9.202;2022-09-12T15:38:46;1.20;;;1.15;;
44181;SDS011;30436;48.888;9.202;2022-09-12T15:41:20;1.67;;;1.30;;
44181;SDS011;30436;48.888;9.202;2022-09-12T15:43:49;2.35;;;1.00;;
44181;SDS011;30436;48.888;9.202;2022-09-12T15:46:15;1.08;;;0.90;;
44181;SDS011;30436;48.888;9.202;2022-09-12T15:48:42;1.45;;;1.20;;
44181;SDS011;30436;48.888;9.202;2022-09-12T15:51:09;1.38;;;0.80;;
44181;SDS011;30436;48.888;9.202;2022-09-12T15:53:40;1.42;;;1.10;;
44181;SDS011;30436;48.888;9.202;2022-09-12T15:56:06;1.23;;;1.13;;
44181;SDS011;30436;48.888;9.202;2022-09-12T15:58:32;1.75;;;1.00;;
44181;SDS011;30436;48.888;9.202;2022-09-12T16:00:57;1.02;;;1.00;;
44181;SDS011;30436;48.888;9.202;2022-09-12T16:03:24;2.33;;;1.30;;
44181;SDS011;30436;48.888;9.202;2022-09-12T16:05:56;1.90;;;1.05;;
44181;SDS011;30436;48.888;9.202;2022-09-12T16:08:25;1.15;;;1.08;;
44181;SDS011;30436;48.888;9.202;2022-09-12T16:10:56;1.30;;;1.20;;
44181;SDS011;30436;48.888;9.202;2022-09-12T16:13:24;1.42;;;1.10;;
44181;SDS011;30436;48.888;9.202;2022-09-12T16:15:50;1.13;;;1.00;;
44181;SDS011;30436;48.888;9.202;2022-09-12T16:18:16;1.42;;;1.20;;
44181;SDS011;30436;48.888;9.202;2022-09-12T16:20:41;2.08;;;1.02;;
44181;SDS011;30436;48.888;9.202;2022-09-12T16:23:11;3.03;;;1.10;;
44181;SDS011;30436;48.888;9.202;2022-09-12T16:25:37;1.92;;;1.13;;
44181;SDS011;30436;48.888;9.202;2022-09-12T16:28:04;1.60;;;1.48;;
44181;SDS011;30436;48.888;9.202;2022-09-12T16:30:31;1.10;;;0.90;;
44181;SDS011;30436;48.888;9.202;2022-09-12T16:32:57;2.45;;;1.10;;
44181;SDS011;30436;48.888;9.202;2022-09-12T16:35:22;1.42;;;1.33;;
44181;SDS011;30436;48.888;9.202;2022-09-12T16:37:48;1.40;;;1.00;;
44181;SDS011;30436;48.888;9.202;2022-09-12T16:40:14;1.02;;;1.02;;
44181;SDS011;30436;48.888;9.202;2022-09-12T16:42:42;1.42;;;1.33;;
44181;SDS011;30436;48.888;9.202;2022-09-12T16:45:08;1.92;;;1.30;;
44181;SDS011;30436;48.888;9.202;2022-09-12T16:47:34;1.25;;;1.15;;
44181;SDS011;30436;48.888;9.202;2022-09-12T16:49:59;1.20;;;1.08;;
44181;SDS011;30436;48.888;9.202;2022-09-12T16:52:25;1.08;;;0.98;;
44181;SDS011;30436;48.888;9.202;2022-09-12T16:54:51;1.15;;;1.05;;
44181;SDS011;30436;48.888;9.202;2022-09-12T16:57:16;1.30;;;1.20;;
44181;SDS011;30436;48.888;9.202;2022-09-12T16:59:42;0.88;;;0.88;;
44181;SDS011;30436;48.888;9.202;2022-09-12T17:02:11;1.10;;;1.10;;
44181;SDS011;30436;48.888;9.202;2022-09-12T17:04:38;1.73;;;1.40;;
44181;SDS011;30436;48.888;9.202;2022-09-12T17:07:04;1.48;;;1.35;;
44181;SDS011;30436;48.888;9.202;2022-09-12T17:09:30;2.55;;;1.40;;
44181;SDS011;30436;48.888;9.202;2022-09-12T17:11:55;1.40;;;1.30;;
44181;SDS011;30436;48.888;9.202;2022-09-12T17:14:21;1.40;;;1.05;;
44181;SDS011;30436;48.888;9.202;2022-09-12T17:16:48;3.25;;;1.60;;
44181;SDS011;30436;48.888;9.202;2022-09-12T17:19:21;1.80;;;1.20;;
44181;SDS011;30436;48.888;9.202;2022-09-12T17:21:52;2.53;;;1.10;;
44181;SDS011;30436;48.888;9.202;2022-09-12T17:24:18;1.38;;;1.27;;
44181;SDS011;30436;48.888;9.202;2022-09-12T17:26:44;1.58;;;1.48;;
44181;SDS011;30436;48.888;9.202;2022-09-12T17:29:11;1.60;;;1.50;;
44181;SDS011;30436;48.888;9.202;2022-09-12T17:31:38;2.95;;;1.65;;
44181;SDS011;30436;48.888;9.202;2022-09-12T17:34:04;2.65;;;1.50;;
44181;SDS011;30436;48.888;9.202;2022-09-12T17:36:30;1.88;;;1.40;;
44181;SDS011;30436;48.888;9.202;2022-09-12T17:38:57;3.00;;;1.58;;
44181;SDS011;30436;48.888;9.202;2022-09-12T17:41:24;3.80;;;1.42;;
44181;SDS011;30436;48.888;9.202;2022-09-12T17:43:52;2.15;;;1.17;;
44181;SDS011;30436;48.888;9.202;2022-09-12T17:46:23;2.65;;;1.40;;
44181;SDS011;30436;48.888;9.202;2022-09-12T17:48:51;1.80;;;1.52;;
44181;SDS011;30436;48.888;9.202;2022-09-12T17:51:19;3.83;;;1.67;;
44181;SDS011;30436;48.888;9.202;2022-09-12T17:53:47;1.48;;;1.38;;
44181;SDS011;30436;48.888;9.202;2022-09-12T17:56:12;3.40;;;1.50;;
44181;SDS011;30436;48.888;9.202;2022-09-12T17:58:39;2.85;;;1.58;;